sensor_id;sensor_type;location;lat;lon;timestamp;P1;durP1;ratioP1;P2;durP2;ratioP2
77423;SDS011;66494;47.172;14.678;2023-07-29T00:00:44;3.83;;;2.28;;
77423;SDS011;66494;47.172;14.678;2023-07-29T00:01:44;3.90;;;2.50;;
77423;SDS011;66494;47.172;14.678;2023-07-29T00:02:45;3.47;;;2.28;;
77423;SDS011;66494;47.172;14.678;2023-07-29T00:03:45;8.70;;;3.00;;
77423;SDS011;66494;47.172;14.678;2023-07-29T00:04:46;5.18;;;2.25;;
77423;SDS011;66494;47.172;14.678;2023-07-29T00:05:46;3.38;;;2.10;;
77423;SDS011;66494;47.172;14.678;2023-07-29T00:06:47;3.60;;;2.22;;
77423;SDS011;66494;47.172;14.678;2023-07-29T00:07:47;8.38;;;2.50;;
77423;SDS011;66494;47.172;14.678;2023-07-29T00:08:47;3.92;;;2.05;;
77423;SDS011;66494;47.172;14.678;2023-07-29T00:09:47;3.10;;;2.30;;
77423;SDS011;66494;47.172;14.678;2023-07-29T00:10:48;3.50;;;2.33;;
77423;SDS011;66494;47.172;14.678;2023-07-29T00:11:48;3.13;;;2.10;;
77423;SDS011;66494;47.172;14.678;2023-07-29T00:12:48;4.05;;;2.70;;
77423;SDS011;66494;47.172;14.678;2023-07-29T00:13:48;3.97;;;2.17;;
77423;SDS011;66494;47.172;14.678;2023-07-29T00:14:50;3.55;;;2.10;;
77423;SDS011;66494;47.172;14.678;2023-07-29T00:15:50;4.93;;;2.38;;
77423;SDS011;66494;47.172;14.678;2023-07-29T00:16:50;3.80;;;2.60;;
77423;SDS011;66494;47.172;14.678;2023-07-29T00:17:50;3.55;;;2.50;;
77423;SDS011;66494;47.172;14.678;2023-07-29T00:18:51;5.03;;;2.97;;
77423;SDS011;66494;47.172;14.678;2023-07-29T00:19:51;3.78;;;2.45;;
77423;SDS011;66494;47.172;14.678;2023-07-29T00:20:51;4.15;;;2.65;;
77423;SDS011;66494;47.172;14.678;2023-07-29T00:21:51;3.53;;;2.28;;
77423;SDS011;66494;47.172;14.678;2023-07-29T00:22:52;2.88;;;1.85;;
77423;SDS011;66494;47.172;14.678;2023-07-29T00:23:55;4.53;;;2.13;;
77423;SDS011;66494;47.172;14.678;2023-07-29T00:24:57;5.80;;;2.40;;
77423;SDS011;66494;47.172;14.678;2023-07-29T00:25:59;3.13;;;2.35;;
77423;SDS011;66494;47.172;14.678;2023-07-29T00:26:59;3.95;;;2.30;;
77423;SDS011;66494;47.172;14.678;2023-07-29T00:27:59;4.50;;;2.30;;
77423;SDS011;66494;47.172;14.678;2023-07-29T00:28:59;4.20;;;2.47;;
77423;SDS011;66494;47.172;14.678;2023-07-29T00:30:00;5.55;;;2.35;;
77423;SDS011;66494;47.172;14.678;2023-07-29T00:31:00;3.33;;;2.50;;
77423;SDS011;66494;47.172;14.678;2023-07-29T00:32:00;3.92;;;2.22;;
77423;SDS011;66494;47.172;14.678;2023-07-29T00:34:00;3.13;;;2.40;;
77423;SDS011;66494;47.172;14.678;2023-07-29T00:35:01;5.18;;;3.42;;
77423;SDS011;66494;47.172;14.678;2023-07-29T00:36:01;3.05;;;2.05;;
77423;SDS011;66494;47.172;14.678;2023-07-29T00:37:02;3.72;;;2.42;;
77423;SDS011;66494;47.172;14.678;2023-07-29T00:38:03;3.55;;;2.67;;
77423;SDS011;66494;47.172;14.678;2023-07-29T00:40:05;2.70;;;2.00;;
77423;SDS011;66494;47.172;14.678;2023-07-29T00:41:08;3.10;;;2.33;;
77423;SDS011;66494;47.172;14.678;2023-07-29T00:42:13;3.08;;;2.25;;
77423;SDS011;66494;47.172;14.678;2023-07-29T00:43:13;3.70;;;1.98;;
77423;SDS011;66494;47.172;14.678;2023-07-29T00:44:13;4.85;;;2.72;;
77423;SDS011;66494;47.172;14.678;2023-07-29T00:45:13;4.18;;;2.58;;
77423;SDS011;66494;47.172;14.678;2023-07-29T00:46:14;4.43;;;2.00;;
77423;SDS011;66494;47.172;14.678;2023-07-29T00:47:15;4.60;;;2.42;;
77423;SDS011;66494;47.172;14.678;2023-07-29T00:48:15;4.00;;;2.00;;
77423;SDS011;66494;47.172;14.678;2023-07-29T00:49:15;4.20;;;2.55;;
77423;SDS011;66494;47.172;14.678;2023-07-29T00:50:16;5.10;;;3.03;;
77423;SDS011;66494;47.172;14.678;2023-07-29T00:51:17;3.03;;;2.03;;
77423;SDS011;66494;47.172;14.678;2023-07-29T00:52:17;4.30;;;2.38;;
77423;SDS011;66494;47.172;14.678;2023-07-29T00:53:17;3.80;;;2.40;;
77423;SDS011;66494;47.172;14.678;2023-07-29T00:54:17;2.75;;;1.92;;
77423;SDS011;66494;47.172;14.678;2023-07-29T00:55:18;4.47;;;2.42;;
77423;SDS011;66494;47.172;14.678;2023-07-29T00:56:18;6.30;;;2.90;;
77423;SDS011;66494;47.172;14.678;2023-07-29T00:57:18;3.45;;;1.95;;
77423;SDS011;66494;47.172;14.678;2023-07-29T00:58:19;5.22;;;2.22;;
77423;SDS011;66494;47.172;14.678;2023-07-29T00:59:19;3.20;;;2.30;;
77423;SDS011;66494;47.172;14.678;2023-07-29T01:00:20;2.90;;;2.22;;
77423;SDS011;66494;47.172;14.678;2023-07-29T01:01:20;6.65;;;2.70;;
77423;SDS011;66494;47.172;14.678;2023-07-29T01:02:20;3.95;;;2.80;;
77423;SDS011;66494;47.172;14.678;2023-07-29T01:03:21;5.50;;;2.10;;
77423;SDS011;66494;47.172;14.678;2023-07-29T01:04:21;3.53;;;2.53;;
77423;SDS011;66494;47.172;14.678;2023-07-29T01:05:22;9.63;;;2.20;;
77423;SDS011;66494;47.172;14.678;2023-07-29T01:12:01;2.90;;;1.80;;
77423;SDS011;66494;47.172;14.678;2023-07-29T01:13:13;2.92;;;2.10;;
77423;SDS011;66494;47.172;14.678;2023-07-29T01:15:28;3.17;;;2.17;;
77423;SDS011;66494;47.172;14.678;2023-07-29T01:16:33;3.67;;;2.17;;
77423;SDS011;66494;47.172;14.678;2023-07-29T01:18:15;3.45;;;2.47;;
77423;SDS011;66494;47.172;14.678;2023-07-29T01:19:05;2.60;;;1.88;;
77423;SDS011;66494;47.172;14.678;2023-07-29T01:20:07;4.25;;;2.78;;
77423;SDS011;66494;47.172;14.678;2023-07-29T01:21:08;2.28;;;1.90;;
77423;SDS011;66494;47.172;14.678;2023-07-29T01:22:10;4.72;;;1.67;;
77423;SDS011;66494;47.172;14.678;2023-07-29T01:23:10;2.97;;;2.00;;
77423;SDS011;66494;47.172;14.678;2023-07-29T01:24:10;3.30;;;2.17;;
77423;SDS011;66494;47.172;14.678;2023-07-29T01:25:11;4.10;;;2.67;;
77423;SDS011;66494;47.172;14.678;2023-07-29T01:26:11;3.88;;;2.33;;
77423;SDS011;66494;47.172;14.678;2023-07-29T01:27:11;3.15;;;1.83;;
77423;SDS011;66494;47.172;14.678;2023-07-29T01:28:11;4.82;;;2.08;;
77423;SDS011;66494;47.172;14.678;2023-07-29T01:29:12;3.28;;;2.20;;
77423;SDS011;66494;47.172;14.678;2023-07-29T01:30:12;3.17;;;1.98;;
77423;SDS011;66494;47.172;14.678;2023-07-29T01:31:13;3.67;;;2.15;;
77423;SDS011;66494;47.172;14.678;2023-07-29T01:32:23;2.95;;;2.20;;
77423;SDS011;66494;47.172;14.678;2023-07-29T01:33:26;3.60;;;2.30;;
77423;SDS011;66494;47.172;14.678;2023-07-29T01:35:28;3.50;;;2.27;;
77423;SDS011;66494;47.172;14.678;2023-07-29T01:36:29;4.40;;;2.33;;
77423;SDS011;66494;47.172;14.678;2023-07-29T01:37:33;4.22;;;2.33;;
77423;SDS011;66494;47.172;14.678;2023-07-29T01:38:35;3.10;;;2.28;;
77423;SDS011;66494;47.172;14.678;2023-07-29T01:39:36;3.35;;;2.60;;
77423;SDS011;66494;47.172;14.678;2023-07-29T01:40:37;6.72;;;2.58;;
77423;SDS011;66494;47.172;14.678;2023-07-29T01:41:37;6.30;;;3.47;;
77423;SDS011;66494;47.172;14.678;2023-07-29T01:42:37;2.78;;;2.22;;
77423;SDS011;66494;47.172;14.678;2023-07-29T01:43:38;3.67;;;2.15;;
77423;SDS011;66494;47.172;14.678;2023-07-29T01:44:41;3.95;;;2.90;;
77423;SDS011;66494;47.172;14.678;2023-07-29T01:45:42;4.55;;;2.28;;
77423;SDS011;66494;47.172;14.678;2023-07-29T01:46:43;4.05;;;2.38;;
77423;SDS011;66494;47.172;14.678;2023-07-29T01:47:44;3.13;;;2.20;;
77423;SDS011;66494;47.172;14.678;2023-07-29T01:48:44;3.78;;;2.67;;
77423;SDS011;66494;47.172;14.678;2023-07-29T01:49:44;4.18;;;2.10;;
77423;SDS011;66494;47.172;14.678;2023-07-29T01:50:44;3.95;;;2.25;;
77423;SDS011;66494;47.172;14.678;2023-07-29T01:51:45;3.65;;;1.90;;
77423;SDS011;66494;47.172;14.678;2023-07-29T01:53:45;4.47;;;2.40;;
77423;SDS011;66494;47.172;14.678;2023-07-29T01:54:45;3.55;;;2.53;;
77423;SDS011;66494;47.172;14.678;2023-07-29T01:55:45;2.83;;;2.10;;
77423;SDS011;66494;47.172;14.678;2023-07-29T01:57:46;3.40;;;2.10;;
77423;SDS011;66494;47.172;14.678;2023-07-29T01:58:46;3.72;;;2.70;;
77423;SDS011;66494;47.172;14.678;2023-07-29T02:00:47;3.03;;;2.25;;
77423;SDS011;66494;47.172;14.678;2023-07-29T02:02:48;5.00;;;2.53;;
77423;SDS011;66494;47.172;14.678;2023-07-29T02:03:49;5.75;;;2.08;;
77423;SDS011;66494;47.172;14.678;2023-07-29T02:04:54;5.13;;;1.80;;
77423;SDS011;66494;47.172;14.678;2023-07-29T02:06:56;3.03;;;2.20;;
77423;SDS011;66494;47.172;14.678;2023-07-29T02:08:56;5.85;;;1.67;;
77423;SDS011;66494;47.172;14.678;2023-07-29T02:09:56;4.18;;;2.83;;
77423;SDS011;66494;47.172;14.678;2023-07-29T02:11:57;3.45;;;2.40;;
77423;SDS011;66494;47.172;14.678;2023-07-29T02:12:57;4.63;;;2.30;;
77423;SDS011;66494;47.172;14.678;2023-07-29T02:13:57;2.97;;;1.90;;
77423;SDS011;66494;47.172;14.678;2023-07-29T02:14:58;2.78;;;1.88;;
77423;SDS011;66494;47.172;14.678;2023-07-29T02:15:58;3.80;;;2.25;;
77423;SDS011;66494;47.172;14.678;2023-07-29T02:17:58;4.70;;;1.95;;
77423;SDS011;66494;47.172;14.678;2023-07-29T02:19:59;2.75;;;1.85;;
77423;SDS011;66494;47.172;14.678;2023-07-29T02:20:59;2.90;;;1.92;;
77423;SDS011;66494;47.172;14.678;2023-07-29T02:23:00;3.20;;;1.80;;
77423;SDS011;66494;47.172;14.678;2023-07-29T02:24:00;3.55;;;2.28;;
77423;SDS011;66494;47.172;14.678;2023-07-29T02:25:00;3.53;;;2.05;;
77423;SDS011;66494;47.172;14.678;2023-07-29T02:26:01;6.63;;;2.80;;
77423;SDS011;66494;47.172;14.678;2023-07-29T02:27:01;4.32;;;2.33;;
77423;SDS011;66494;47.172;14.678;2023-07-29T02:28:01;2.95;;;1.98;;
77423;SDS011;66494;47.172;14.678;2023-07-29T02:29:03;2.80;;;1.75;;
77423;SDS011;66494;47.172;14.678;2023-07-29T02:30:03;3.03;;;1.95;;
77423;SDS011;66494;47.172;14.678;2023-07-29T02:31:17;4.10;;;2.30;;
77423;SDS011;66494;47.172;14.678;2023-07-29T02:32:17;2.97;;;1.88;;
77423;SDS011;66494;47.172;14.678;2023-07-29T02:33:18;3.60;;;2.03;;
77423;SDS011;66494;47.172;14.678;2023-07-29T02:34:18;3.20;;;2.25;;
77423;SDS011;66494;47.172;14.678;2023-07-29T02:35:18;3.22;;;2.00;;
77423;SDS011;66494;47.172;14.678;2023-07-29T02:36:19;2.67;;;1.90;;
77423;SDS011;66494;47.172;14.678;2023-07-29T02:38:20;5.38;;;2.03;;
77423;SDS011;66494;47.172;14.678;2023-07-29T02:39:20;5.32;;;3.25;;
77423;SDS011;66494;47.172;14.678;2023-07-29T02:40:20;3.13;;;2.15;;
77423;SDS011;66494;47.172;14.678;2023-07-29T02:41:20;2.85;;;1.88;;
77423;SDS011;66494;47.172;14.678;2023-07-29T02:43:21;1.85;;;1.52;;
77423;SDS011;66494;47.172;14.678;2023-07-29T02:44:21;7.60;;;3.17;;
77423;SDS011;66494;47.172;14.678;2023-07-29T02:45:21;2.45;;;1.98;;
77423;SDS011;66494;47.172;14.678;2023-07-29T02:47:22;5.18;;;2.28;;
77423;SDS011;66494;47.172;14.678;2023-07-29T02:48:22;2.97;;;2.22;;
77423;SDS011;66494;47.172;14.678;2023-07-29T02:49:22;3.10;;;2.15;;
77423;SDS011;66494;47.172;14.678;2023-07-29T02:51:23;3.00;;;1.80;;
77423;SDS011;66494;47.172;14.678;2023-07-29T02:52:24;2.33;;;1.70;;
77423;SDS011;66494;47.172;14.678;2023-07-29T02:53:24;4.72;;;2.00;;
77423;SDS011;66494;47.172;14.678;2023-07-29T02:54:24;4.20;;;2.38;;
77423;SDS011;66494;47.172;14.678;2023-07-29T02:56:25;4.70;;;2.47;;
77423;SDS011;66494;47.172;14.678;2023-07-29T02:57:25;6.38;;;2.20;;
77423;SDS011;66494;47.172;14.678;2023-07-29T02:58:25;5.70;;;2.70;;
77423;SDS011;66494;47.172;14.678;2023-07-29T02:59:26;3.53;;;2.53;;
77423;SDS011;66494;47.172;14.678;2023-07-29T03:00:26;3.42;;;2.03;;
77423;SDS011;66494;47.172;14.678;2023-07-29T03:01:26;3.72;;;2.15;;
77423;SDS011;66494;47.172;14.678;2023-07-29T03:02:27;5.70;;;2.50;;
77423;SDS011;66494;47.172;14.678;2023-07-29T03:03:27;5.88;;;2.55;;
77423;SDS011;66494;47.172;14.678;2023-07-29T03:05:27;3.17;;;2.30;;
77423;SDS011;66494;47.172;14.678;2023-07-29T03:06:28;3.40;;;2.17;;
77423;SDS011;66494;47.172;14.678;2023-07-29T03:07:28;4.00;;;1.70;;
77423;SDS011;66494;47.172;14.678;2023-07-29T03:08:28;3.25;;;2.03;;
77423;SDS011;66494;47.172;14.678;2023-07-29T03:09:28;4.25;;;2.70;;
77423;SDS011;66494;47.172;14.678;2023-07-29T03:10:29;4.85;;;2.60;;
77423;SDS011;66494;47.172;14.678;2023-07-29T03:12:31;4.25;;;2.13;;
77423;SDS011;66494;47.172;14.678;2023-07-29T03:13:31;5.10;;;1.73;;
77423;SDS011;66494;47.172;14.678;2023-07-29T03:14:31;6.78;;;2.20;;
77423;SDS011;66494;47.172;14.678;2023-07-29T03:15:31;4.28;;;2.33;;
77423;SDS011;66494;47.172;14.678;2023-07-29T03:16:34;6.55;;;2.35;;
77423;SDS011;66494;47.172;14.678;2023-07-29T03:17:34;3.60;;;2.22;;
77423;SDS011;66494;47.172;14.678;2023-07-29T03:18:34;4.57;;;2.88;;
77423;SDS011;66494;47.172;14.678;2023-07-29T03:19:35;5.00;;;2.88;;
77423;SDS011;66494;47.172;14.678;2023-07-29T03:20:35;3.88;;;2.15;;
77423;SDS011;66494;47.172;14.678;2023-07-29T03:21:35;4.25;;;2.15;;
77423;SDS011;66494;47.172;14.678;2023-07-29T03:22:35;3.35;;;2.45;;
77423;SDS011;66494;47.172;14.678;2023-07-29T03:23:36;5.47;;;2.05;;
77423;SDS011;66494;47.172;14.678;2023-07-29T03:24:36;5.00;;;2.30;;
77423;SDS011;66494;47.172;14.678;2023-07-29T03:25:37;5.85;;;2.15;;
77423;SDS011;66494;47.172;14.678;2023-07-29T03:26:37;4.25;;;2.22;;
77423;SDS011;66494;47.172;14.678;2023-07-29T03:27:37;3.10;;;2.25;;
77423;SDS011;66494;47.172;14.678;2023-07-29T03:28:38;7.05;;;2.47;;
77423;SDS011;66494;47.172;14.678;2023-07-29T03:29:39;4.82;;;2.70;;
77423;SDS011;66494;47.172;14.678;2023-07-29T03:30:39;2.72;;;2.03;;
77423;SDS011;66494;47.172;14.678;2023-07-29T03:31:39;10.52;;;2.90;;
77423;SDS011;66494;47.172;14.678;2023-07-29T03:32:43;4.43;;;2.85;;
77423;SDS011;66494;47.172;14.678;2023-07-29T03:33:43;4.43;;;2.25;;
77423;SDS011;66494;47.172;14.678;2023-07-29T03:34:43;5.47;;;2.30;;
77423;SDS011;66494;47.172;14.678;2023-07-29T03:35:43;3.90;;;2.33;;
77423;SDS011;66494;47.172;14.678;2023-07-29T03:36:44;4.07;;;2.60;;
77423;SDS011;66494;47.172;14.678;2023-07-29T03:37:47;4.25;;;2.08;;
77423;SDS011;66494;47.172;14.678;2023-07-29T03:38:47;3.63;;;2.47;;
77423;SDS011;66494;47.172;14.678;2023-07-29T03:39:48;4.70;;;2.20;;
77423;SDS011;66494;47.172;14.678;2023-07-29T03:40:48;3.78;;;2.63;;
77423;SDS011;66494;47.172;14.678;2023-07-29T03:41:48;5.03;;;2.50;;
77423;SDS011;66494;47.172;14.678;2023-07-29T03:42:48;4.00;;;2.55;;
77423;SDS011;66494;47.172;14.678;2023-07-29T03:44:49;3.17;;;2.33;;
77423;SDS011;66494;47.172;14.678;2023-07-29T03:45:49;3.35;;;2.45;;
77423;SDS011;66494;47.172;14.678;2023-07-29T03:46:50;3.78;;;2.58;;
77423;SDS011;66494;47.172;14.678;2023-07-29T03:47:50;5.43;;;2.67;;
77423;SDS011;66494;47.172;14.678;2023-07-29T03:49:50;6.13;;;2.67;;
77423;SDS011;66494;47.172;14.678;2023-07-29T03:50:50;4.25;;;2.35;;
77423;SDS011;66494;47.172;14.678;2023-07-29T03:51:51;6.15;;;2.90;;
77423;SDS011;66494;47.172;14.678;2023-07-29T03:52:51;5.95;;;3.53;;
77423;SDS011;66494;47.172;14.678;2023-07-29T03:53:51;6.20;;;3.95;;
77423;SDS011;66494;47.172;14.678;2023-07-29T03:55:52;4.95;;;3.45;;
77423;SDS011;66494;47.172;14.678;2023-07-29T03:56:52;8.05;;;3.45;;
77423;SDS011;66494;47.172;14.678;2023-07-29T03:57:52;5.05;;;3.28;;
77423;SDS011;66494;47.172;14.678;2023-07-29T03:58:52;5.07;;;3.38;;
77423;SDS011;66494;47.172;14.678;2023-07-29T03:59:53;6.65;;;3.33;;
77423;SDS011;66494;47.172;14.678;2023-07-29T04:00:54;4.50;;;3.35;;
77423;SDS011;66494;47.172;14.678;2023-07-29T04:01:54;6.40;;;3.78;;
77423;SDS011;66494;47.172;14.678;2023-07-29T04:02:54;6.28;;;3.20;;
77423;SDS011;66494;47.172;14.678;2023-07-29T04:03:55;6.72;;;4.72;;
77423;SDS011;66494;47.172;14.678;2023-07-29T04:04:55;7.22;;;3.20;;
77423;SDS011;66494;47.172;14.678;2023-07-29T04:05:55;4.18;;;3.03;;
77423;SDS011;66494;47.172;14.678;2023-07-29T04:07:56;6.35;;;2.72;;
77423;SDS011;66494;47.172;14.678;2023-07-29T04:08:56;5.13;;;3.10;;
77423;SDS011;66494;47.172;14.678;2023-07-29T04:09:56;3.88;;;2.63;;
77423;SDS011;66494;47.172;14.678;2023-07-29T04:10:56;4.43;;;3.08;;
77423;SDS011;66494;47.172;14.678;2023-07-29T04:11:57;5.13;;;3.35;;
77423;SDS011;66494;47.172;14.678;2023-07-29T04:12:57;5.03;;;3.17;;
77423;SDS011;66494;47.172;14.678;2023-07-29T04:13:57;4.65;;;3.20;;
77423;SDS011;66494;47.172;14.678;2023-07-29T04:14:57;4.18;;;2.78;;
77423;SDS011;66494;47.172;14.678;2023-07-29T04:15:58;3.95;;;2.85;;
77423;SDS011;66494;47.172;14.678;2023-07-29T04:16:58;4.55;;;3.03;;
77423;SDS011;66494;47.172;14.678;2023-07-29T04:17:58;3.17;;;2.25;;
77423;SDS011;66494;47.172;14.678;2023-07-29T04:19:58;8.63;;;2.88;;
77423;SDS011;66494;47.172;14.678;2023-07-29T04:20:59;8.65;;;3.80;;
77423;SDS011;66494;47.172;14.678;2023-07-29T04:21:59;4.40;;;2.65;;
77423;SDS011;66494;47.172;14.678;2023-07-29T04:22:59;5.03;;;2.42;;
77423;SDS011;66494;47.172;14.678;2023-07-29T04:23:59;3.67;;;3.33;;
77423;SDS011;66494;47.172;14.678;2023-07-29T04:25:00;3.38;;;2.40;;
77423;SDS011;66494;47.172;14.678;2023-07-29T04:27:00;5.38;;;1.85;;
77423;SDS011;66494;47.172;14.678;2023-07-29T04:28:00;4.82;;;2.85;;
77423;SDS011;66494;47.172;14.678;2023-07-29T04:29:03;2.08;;;1.33;;
77423;SDS011;66494;47.172;14.678;2023-07-29T04:30:03;5.00;;;2.05;;
77423;SDS011;66494;47.172;14.678;2023-07-29T04:31:03;2.17;;;1.65;;
77423;SDS011;66494;47.172;14.678;2023-07-29T04:32:04;2.50;;;1.23;;
77423;SDS011;66494;47.172;14.678;2023-07-29T04:33:04;2.05;;;1.38;;
77423;SDS011;66494;47.172;14.678;2023-07-29T04:34:05;2.80;;;1.48;;
77423;SDS011;66494;47.172;14.678;2023-07-29T04:35:05;2.47;;;1.40;;
77423;SDS011;66494;47.172;14.678;2023-07-29T04:36:06;1.80;;;1.23;;
77423;SDS011;66494;47.172;14.678;2023-07-29T04:37:06;2.45;;;1.25;;
77423;SDS011;66494;47.172;14.678;2023-07-29T04:38:06;2.17;;;1.35;;
77423;SDS011;66494;47.172;14.678;2023-07-29T04:39:06;2.30;;;1.45;;
77423;SDS011;66494;47.172;14.678;2023-07-29T04:40:07;3.35;;;1.13;;
77423;SDS011;66494;47.172;14.678;2023-07-29T04:41:08;2.17;;;1.30;;
77423;SDS011;66494;47.172;14.678;2023-07-29T04:42:09;2.30;;;1.00;;
77423;SDS011;66494;47.172;14.678;2023-07-29T04:43:09;2.85;;;1.40;;
77423;SDS011;66494;47.172;14.678;2023-07-29T04:44:09;3.08;;;1.40;;
77423;SDS011;66494;47.172;14.678;2023-07-29T04:45:09;2.08;;;1.17;;
77423;SDS011;66494;47.172;14.678;2023-07-29T04:46:10;2.38;;;1.23;;
77423;SDS011;66494;47.172;14.678;2023-07-29T04:47:10;1.58;;;1.00;;
77423;SDS011;66494;47.172;14.678;2023-07-29T04:48:10;2.83;;;1.33;;
77423;SDS011;66494;47.172;14.678;2023-07-29T04:50:11;2.00;;;1.00;;
77423;SDS011;66494;47.172;14.678;2023-07-29T04:51:11;1.88;;;1.20;;
77423;SDS011;66494;47.172;14.678;2023-07-29T04:52:11;2.35;;;1.55;;
77423;SDS011;66494;47.172;14.678;2023-07-29T04:54:11;2.85;;;1.30;;
77423;SDS011;66494;47.172;14.678;2023-07-29T04:55:12;2.38;;;1.50;;
77423;SDS011;66494;47.172;14.678;2023-07-29T04:56:12;2.08;;;1.23;;
77423;SDS011;66494;47.172;14.678;2023-07-29T04:57:12;2.35;;;1.23;;
77423;SDS011;66494;47.172;14.678;2023-07-29T04:58:12;1.83;;;0.95;;
77423;SDS011;66494;47.172;14.678;2023-07-29T04:59:13;2.47;;;1.00;;
77423;SDS011;66494;47.172;14.678;2023-07-29T05:00:13;1.65;;;1.13;;
77423;SDS011;66494;47.172;14.678;2023-07-29T05:01:13;2.00;;;1.17;;
77423;SDS011;66494;47.172;14.678;2023-07-29T05:02:13;2.55;;;1.38;;
77423;SDS011;66494;47.172;14.678;2023-07-29T05:03:14;2.35;;;1.30;;
77423;SDS011;66494;47.172;14.678;2023-07-29T05:04:14;2.17;;;1.15;;
77423;SDS011;66494;47.172;14.678;2023-07-29T05:06:14;2.30;;;1.45;;
77423;SDS011;66494;47.172;14.678;2023-07-29T05:07:14;1.85;;;1.25;;
77423;SDS011;66494;47.172;14.678;2023-07-29T05:08:15;3.00;;;2.05;;
77423;SDS011;66494;47.172;14.678;2023-07-29T05:09:15;2.25;;;0.93;;
77423;SDS011;66494;47.172;14.678;2023-07-29T05:11:16;4.13;;;1.17;;
77423;SDS011;66494;47.172;14.678;2023-07-29T05:12:16;2.63;;;1.38;;
77423;SDS011;66494;47.172;14.678;2023-07-29T05:13:17;2.63;;;1.20;;
77423;SDS011;66494;47.172;14.678;2023-07-29T05:14:17;3.72;;;1.25;;
77423;SDS011;66494;47.172;14.678;2023-07-29T05:15:18;1.70;;;1.05;;
77423;SDS011;66494;47.172;14.678;2023-07-29T05:16:18;3.30;;;1.30;;
77423;SDS011;66494;47.172;14.678;2023-07-29T05:17:19;1.75;;;1.10;;
77423;SDS011;66494;47.172;14.678;2023-07-29T05:19:19;2.88;;;1.50;;
77423;SDS011;66494;47.172;14.678;2023-07-29T05:20:19;2.15;;;1.13;;
77423;SDS011;66494;47.172;14.678;2023-07-29T05:21:19;2.13;;;1.00;;
77423;SDS011;66494;47.172;14.678;2023-07-29T05:22:20;2.65;;;1.35;;
77423;SDS011;66494;47.172;14.678;2023-07-29T05:24:20;2.33;;;1.30;;
77423;SDS011;66494;47.172;14.678;2023-07-29T05:25:20;2.72;;;1.35;;
77423;SDS011;66494;47.172;14.678;2023-07-29T05:26:21;2.28;;;1.10;;
77423;SDS011;66494;47.172;14.678;2023-07-29T05:27:21;2.70;;;1.10;;
77423;SDS011;66494;47.172;14.678;2023-07-29T05:28:22;3.00;;;1.10;;
77423;SDS011;66494;47.172;14.678;2023-07-29T05:29:22;1.83;;;1.23;;
77423;SDS011;66494;47.172;14.678;2023-07-29T05:30:22;3.58;;;1.08;;
77423;SDS011;66494;47.172;14.678;2023-07-29T05:31:23;1.85;;;1.02;;
77423;SDS011;66494;47.172;14.678;2023-07-29T05:32:23;2.83;;;0.98;;
77423;SDS011;66494;47.172;14.678;2023-07-29T05:34:23;1.55;;;0.70;;
77423;SDS011;66494;47.172;14.678;2023-07-29T05:35:24;3.15;;;1.40;;
77423;SDS011;66494;47.172;14.678;2023-07-29T05:36:24;1.67;;;1.17;;
77423;SDS011;66494;47.172;14.678;2023-07-29T05:37:24;1.95;;;1.00;;
77423;SDS011;66494;47.172;14.678;2023-07-29T05:38:25;2.05;;;1.33;;
77423;SDS011;66494;47.172;14.678;2023-07-29T05:39:26;6.60;;;0.95;;
77423;SDS011;66494;47.172;14.678;2023-07-29T05:40:26;1.85;;;1.05;;
77423;SDS011;66494;47.172;14.678;2023-07-29T05:41:26;2.50;;;1.17;;
77423;SDS011;66494;47.172;14.678;2023-07-29T05:42:28;2.15;;;1.30;;
77423;SDS011;66494;47.172;14.678;2023-07-29T05:43:28;2.20;;;1.20;;
77423;SDS011;66494;47.172;14.678;2023-07-29T05:44:28;1.40;;;1.00;;
77423;SDS011;66494;47.172;14.678;2023-07-29T05:45:30;2.50;;;1.13;;
77423;SDS011;66494;47.172;14.678;2023-07-29T05:46:31;1.67;;;1.08;;
77423;SDS011;66494;47.172;14.678;2023-07-29T05:47:31;3.95;;;0.98;;
77423;SDS011;66494;47.172;14.678;2023-07-29T05:48:31;1.27;;;0.90;;
77423;SDS011;66494;47.172;14.678;2023-07-29T05:49:32;1.52;;;1.00;;
77423;SDS011;66494;47.172;14.678;2023-07-29T05:51:33;2.67;;;1.08;;
77423;SDS011;66494;47.172;14.678;2023-07-29T05:52:33;2.25;;;1.10;;
77423;SDS011;66494;47.172;14.678;2023-07-29T05:53:33;5.97;;;1.75;;
77423;SDS011;66494;47.172;14.678;2023-07-29T05:54:34;2.22;;;1.30;;
77423;SDS011;66494;47.172;14.678;2023-07-29T05:55:34;1.52;;;1.23;;
77423;SDS011;66494;47.172;14.678;2023-07-29T05:56:34;2.20;;;1.40;;
77423;SDS011;66494;47.172;14.678;2023-07-29T05:57:34;2.17;;;1.25;;
77423;SDS011;66494;47.172;14.678;2023-07-29T05:58:34;1.90;;;1.13;;
77423;SDS011;66494;47.172;14.678;2023-07-29T06:00:35;1.73;;;1.10;;
77423;SDS011;66494;47.172;14.678;2023-07-29T06:01:35;3.58;;;1.38;;
77423;SDS011;66494;47.172;14.678;2023-07-29T06:02:36;3.75;;;2.05;;
77423;SDS011;66494;47.172;14.678;2023-07-29T06:03:36;2.25;;;1.45;;
77423;SDS011;66494;47.172;14.678;2023-07-29T06:04:36;1.98;;;1.10;;
77423;SDS011;66494;47.172;14.678;2023-07-29T06:05:36;3.17;;;1.23;;
77423;SDS011;66494;47.172;14.678;2023-07-29T06:07:37;2.63;;;1.08;;
77423;SDS011;66494;47.172;14.678;2023-07-29T06:08:38;1.77;;;0.98;;
77423;SDS011;66494;47.172;14.678;2023-07-29T06:10:38;2.25;;;1.27;;
77423;SDS011;66494;47.172;14.678;2023-07-29T06:11:38;1.38;;;0.77;;
77423;SDS011;66494;47.172;14.678;2023-07-29T06:12:38;2.67;;;1.48;;
77423;SDS011;66494;47.172;14.678;2023-07-29T06:14:39;1.10;;;0.80;;
77423;SDS011;66494;47.172;14.678;2023-07-29T06:15:39;2.53;;;1.33;;
77423;SDS011;66494;47.172;14.678;2023-07-29T06:16:39;1.80;;;1.05;;
77423;SDS011;66494;47.172;14.678;2023-07-29T06:17:39;1.80;;;1.02;;
77423;SDS011;66494;47.172;14.678;2023-07-29T06:18:40;2.05;;;1.25;;
77423;SDS011;66494;47.172;14.678;2023-07-29T06:19:40;2.72;;;1.33;;
77423;SDS011;66494;47.172;14.678;2023-07-29T06:21:41;2.10;;;1.17;;
77423;SDS011;66494;47.172;14.678;2023-07-29T06:22:42;2.00;;;1.05;;
77423;SDS011;66494;47.172;14.678;2023-07-29T06:24:43;1.40;;;0.93;;
77423;SDS011;66494;47.172;14.678;2023-07-29T06:25:43;3.65;;;1.23;;
77423;SDS011;66494;47.172;14.678;2023-07-29T06:26:43;2.22;;;1.20;;
77423;SDS011;66494;47.172;14.678;2023-07-29T06:27:44;2.22;;;1.17;;
77423;SDS011;66494;47.172;14.678;2023-07-29T06:29:44;1.60;;;0.90;;
77423;SDS011;66494;47.172;14.678;2023-07-29T06:30:44;2.40;;;1.33;;
77423;SDS011;66494;47.172;14.678;2023-07-29T06:32:45;1.83;;;1.17;;
77423;SDS011;66494;47.172;14.678;2023-07-29T06:34:45;1.58;;;1.02;;
77423;SDS011;66494;47.172;14.678;2023-07-29T06:35:45;2.13;;;1.50;;
77423;SDS011;66494;47.172;14.678;2023-07-29T06:36:45;1.23;;;0.82;;
77423;SDS011;66494;47.172;14.678;2023-07-29T06:37:46;1.92;;;1.05;;
77423;SDS011;66494;47.172;14.678;2023-07-29T06:38:46;2.03;;;1.30;;
77423;SDS011;66494;47.172;14.678;2023-07-29T06:39:46;1.95;;;1.30;;
77423;SDS011;66494;47.172;14.678;2023-07-29T06:41:47;1.40;;;0.98;;
77423;SDS011;66494;47.172;14.678;2023-07-29T06:43:47;2.03;;;1.00;;
77423;SDS011;66494;47.172;14.678;2023-07-29T06:44:47;1.83;;;1.00;;
77423;SDS011;66494;47.172;14.678;2023-07-29T06:45:47;2.35;;;1.20;;
77423;SDS011;66494;47.172;14.678;2023-07-29T06:46:48;1.42;;;0.82;;
77423;SDS011;66494;47.172;14.678;2023-07-29T06:47:48;2.00;;;1.10;;
77423;SDS011;66494;47.172;14.678;2023-07-29T06:48:48;4.18;;;1.00;;
77423;SDS011;66494;47.172;14.678;2023-07-29T06:49:48;1.80;;;0.90;;
77423;SDS011;66494;47.172;14.678;2023-07-29T06:50:49;2.88;;;1.13;;
77423;SDS011;66494;47.172;14.678;2023-07-29T06:51:50;2.17;;;1.13;;